sensor_id;sensor_type;location;lat;lon;timestamp;temperature;humidity
31038;DHT22;17702;47.590;7.666;2022-11-15T00:01:08;11.70;99.90
31038;DHT22;17702;47.590;7.666;2022-11-15T00:03:34;11.70;99.90
31038;DHT22;17702;47.590;7.666;2022-11-15T00:06:03;11.70;99.90
31038;DHT22;17702;47.590;7.666;2022-11-15T00:08:29;11.70;99.90
31038;DHT22;17702;47.590;7.666;2022-11-15T00:10:56;11.60;99.90
31038;DHT22;17702;47.590;7.666;2022-11-15T00:13:21;11.60;99.90
31038;DHT22;17702;47.590;7.666;2022-11-15T00:15:47;11.60;99.90
31038;DHT22;17702;47.590;7.666;2022-11-15T00:18:13;11.70;99.90
31038;DHT22;17702;47.590;7.666;2022-11-15T00:20:38;11.60;99.90
31038;DHT22;17702;47.590;7.666;2022-11-15T00:23:04;11.60;99.90
31038;DHT22;17702;47.590;7.666;2022-11-15T00:25:30;11.60;99.90
31038;DHT22;17702;47.590;7.666;2022-11-15T00:27:56;11.60;99.90
31038;DHT22;17702;47.590;7.666;2022-11-15T00:30:22;11.60;99.90
31038;DHT22;17702;47.590;7.666;2022-11-15T00:32:47;11.60;99.90
31038;DHT22;17702;47.590;7.666;2022-11-15T00:35:13;11.60;99.90
31038;DHT22;17702;47.590;7.666;2022-11-15T00:37:38;11.70;99.90
31038;DHT22;17702;47.590;7.666;2022-11-15T00:40:04;11.60;99.90
31038;DHT22;17702;47.590;7.666;2022-11-15T00:42:30;11.60;99.90
31038;DHT22;17702;47.590;7.666;2022-11-15T00:44:55;11.60;99.90
31038;DHT22;17702;47.590;7.666;2022-11-15T00:47:21;11.60;99.90
31038;DHT22;17702;47.590;7.666;2022-11-15T00:49:46;11.60;99.90
31038;DHT22;17702;47.590;7.666;2022-11-15T00:52:12;11.60;99.90
31038;DHT22;17702;47.590;7.666;2022-11-15T00:54:37;11.60;99.90
31038;DHT22;17702;47.590;7.666;2022-11-15T00:57:02;11.60;99.90
31038;DHT22;17702;47.590;7.666;2022-11-15T00:59:28;11.60;99.90
31038;DHT22;17702;47.590;7.666;2022-11-15T01:01:53;11.60;99.90
31038;DHT22;17702;47.590;7.666;2022-11-15T01:04:19;11.60;99.90
31038;DHT22;17702;47.590;7.666;2022-11-15T01:06:44;11.60;99.90
31038;DHT22;17702;47.590;7.666;2022-11-15T01:09:10;11.60;99.90
31038;DHT22;17702;47.590;7.666;2022-11-15T01:11:35;11.60;99.90
31038;DHT22;17702;47.590;7.666;2022-11-15T01:14:01;11.60;99.90
31038;DHT22;17702;47.590;7.666;2022-11-15T01:16:26;11.60;99.90
31038;DHT22;17702;47.590;7.666;2022-11-15T01:18:52;11.60;99.90
31038;DHT22;17702;47.590;7.666;2022-11-15T01:21:18;11.60;99.90
31038;DHT22;17702;47.590;7.666;2022-11-15T01:23:44;11.60;99.90
31038;DHT22;17702;47.590;7.666;2022-11-15T01:26:11;11.60;99.90
31038;DHT22;17702;47.590;7.666;2022-11-15T01:28:38;11.60;99.90
31038;DHT22;17702;47.590;7.666;2022-11-15T01:31:05;11.60;99.90
31038;DHT22;17702;47.590;7.666;2022-11-15T01:33:33;11.70;99.90
31038;DHT22;17702;47.590;7.666;2022-11-15T01:35:59;11.70;99.90
31038;DHT22;17702;47.590;7.666;2022-11-15T01:38:28;11.70;99.90
31038;DHT22;17702;47.590;7.666;2022-11-15T01:40:53;11.70;99.90
31038;DHT22;17702;47.590;7.666;2022-11-15T01:43:29;11.80;99.90
31038;DHT22;17702;47.590;7.666;2022-11-15T01:45:56;11.70;99.90
31038;DHT22;17702;47.590;7.666;2022-11-15T01:48:25;11.80;99.90
31038;DHT22;17702;47.590;7.666;2022-11-15T01:50:51;11.70;99.90
31038;DHT22;17702;47.590;7.666;2022-11-15T01:53:17;11.60;99.90
31038;DHT22;17702;47.590;7.666;2022-11-15T01:55:44;11.70;99.90
31038;DHT22;17702;47.590;7.666;2022-11-15T01:58:10;11.60;99.90
31038;DHT22;17702;47.590;7.666;2022-11-15T02:00:35;11.60;99.90
31038;DHT22;17702;47.590;7.666;2022-11-15T02:03:01;11.70;99.90
31038;DHT22;17702;47.590;7.666;2022-11-15T02:05:27;11.70;99.90
31038;DHT22;17702;47.590;7.666;2022-11-15T02:07:53;11.70;99.90
31038;DHT22;17702;47.590;7.666;2022-11-15T02:10:19;11.70;99.90
31038;DHT22;17702;47.590;7.666;2022-11-15T02:12:45;11.70;99.90
31038;DHT22;17702;47.590;7.666;2022-11-15T02:15:12;11.60;99.90
31038;DHT22;17702;47.590;7.666;2022-11-15T02:17:42;11.60;99.90
31038;DHT22;17702;47.590;7.666;2022-11-15T02:32:40;11.60;99.90
31038;DHT22;17702;47.590;7.666;2022-11-15T02:35:15;11.50;99.90
31038;DHT22;17702;47.590;7.666;2022-11-15T02:37:47;11.50;99.90
31038;DHT22;17702;47.590;7.666;2022-11-15T02:40:22;11.50;99.90
31038;DHT22;17702;47.590;7.666;2022-11-15T02:42:50;11.50;99.90
31038;DHT22;17702;47.590;7.666;2022-11-15T02:45:38;11.50;99.90
31038;DHT22;17702;47.590;7.666;2022-11-15T02:48:04;11.50;99.90
31038;DHT22;17702;47.590;7.666;2022-11-15T02:50:31;11.50;99.90
31038;DHT22;17702;47.590;7.666;2022-11-15T02:52:58;11.50;99.90
31038;DHT22;17702;47.590;7.666;2022-11-15T02:55:30;11.50;99.90
31038;DHT22;17702;47.590;7.666;2022-11-15T03:00:28;11.40;99.90
31038;DHT22;17702;47.590;7.666;2022-11-15T03:03:10;11.30;99.90
31038;DHT22;17702;47.590;7.666;2022-11-15T03:05:44;11.30;99.90
31038;DHT22;17702;47.590;7.666;2022-11-15T03:13:24;11.30;99.90
31038;DHT22;17702;47.590;7.666;2022-11-15T03:16:02;11.20;99.90
31038;DHT22;17702;47.590;7.666;2022-11-15T03:18:38;11.20;99.90
31038;DHT22;17702;47.590;7.666;2022-11-15T03:21:07;11.20;99.90
31038;DHT22;17702;47.590;7.666;2022-11-15T03:23:33;11.20;99.90
31038;DHT22;17702;47.590;7.666;2022-11-15T03:26:00;11.10;99.90
31038;DHT22;17702;47.590;7.666;2022-11-15T03:28:49;11.10;99.90
31038;DHT22;17702;47.590;7.666;2022-11-15T03:31:12;11.10;99.90
31038;DHT22;17702;47.590;7.666;2022-11-15T03:33:57;11.00;99.90
31038;DHT22;17702;47.590;7.666;2022-11-15T03:36:24;11.00;99.90
31038;DHT22;17702;47.590;7.666;2022-11-15T03:38:51;11.00;99.90
31038;DHT22;17702;47.590;7.666;2022-11-15T03:41:23;11.10;99.90
31038;DHT22;17702;47.590;7.666;2022-11-15T03:43:53;11.10;99.90
31038;DHT22;17702;47.590;7.666;2022-11-15T03:46:28;11.10;99.90
31038;DHT22;17702;47.590;7.666;2022-11-15T03:49:04;11.00;99.90
31038;DHT22;17702;47.590;7.666;2022-11-15T03:51:30;11.00;99.90
31038;DHT22;17702;47.590;7.666;2022-11-15T03:53:56;11.00;99.90
31038;DHT22;17702;47.590;7.666;2022-11-15T03:56:22;11.10;99.90
31038;DHT22;17702;47.590;7.666;2022-11-15T03:58:47;11.10;99.90
31038;DHT22;17702;47.590;7.666;2022-11-15T04:01:12;11.10;99.90
31038;DHT22;17702;47.590;7.666;2022-11-15T04:03:38;11.10;99.90
31038;DHT22;17702;47.590;7.666;2022-11-15T04:06:03;11.10;99.90
31038;DHT22;17702;47.590;7.666;2022-11-15T04:08:29;11.00;99.90
31038;DHT22;17702;47.590;7.666;2022-11-15T04:10:54;11.00;99.90
31038;DHT22;17702;47.590;7.666;2022-11-15T04:13:20;11.00;99.90
31038;DHT22;17702;47.590;7.666;2022-11-15T04:15:45;11.00;99.90
31038;DHT22;17702;47.590;7.666;2022-11-15T04:18:11;11.00;99.90
31038;DHT22;17702;47.590;7.666;2022-11-15T04:20:36;11.00;99.90
31038;DHT22;17702;47.590;7.666;2022-11-15T04:23:21;11.00;99.90
31038;DHT22;17702;47.590;7.666;2022-11-15T04:26:07;11.00;99.90
31038;DHT22;17702;47.590;7.666;2022-11-15T04:28:33;11.00;99.90
31038;DHT22;17702;47.590;7.666;2022-11-15T04:30:59;10.90;99.90
31038;DHT22;17702;47.590;7.666;2022-11-15T04:33:25;10.90;99.90
31038;DHT22;17702;47.590;7.666;2022-11-15T04:35:50;10.90;99.90
31038;DHT22;17702;47.590;7.666;2022-11-15T04:38:35;10.90;99.90
31038;DHT22;17702;47.590;7.666;2022-11-15T04:41:01;10.80;99.90
31038;DHT22;17702;47.590;7.666;2022-11-15T04:43:27;10.90;99.90
31038;DHT22;17702;47.590;7.666;2022-11-15T04:45:52;10.80;99.90
31038;DHT22;17702;47.590;7.666;2022-11-15T04:48:18;10.90;99.90
31038;DHT22;17702;47.590;7.666;2022-11-15T04:50:43;10.90;99.90
31038;DHT22;17702;47.590;7.666;2022-11-15T04:53:09;10.90;99.90
31038;DHT22;17702;47.590;7.666;2022-11-15T04:55:34;10.90;99.90
31038;DHT22;17702;47.590;7.666;2022-11-15T04:58:00;10.90;99.90
31038;DHT22;17702;47.590;7.666;2022-11-15T05:00:26;10.90;99.90
31038;DHT22;17702;47.590;7.666;2022-11-15T05:02:52;10.90;99.90
31038;DHT22;17702;47.590;7.666;2022-11-15T05:05:36;10.90;99.90
31038;DHT22;17702;47.590;7.666;2022-11-15T05:08:02;10.90;99.90
31038;DHT22;17702;47.590;7.666;2022-11-15T05:10:27;10.90;99.90
31038;DHT22;17702;47.590;7.666;2022-11-15T05:12:53;10.90;99.90
31038;DHT22;17702;47.590;7.666;2022-11-15T05:15:18;10.90;99.90
31038;DHT22;17702;47.590;7.666;2022-11-15T05:17:44;10.90;99.90
31038;DHT22;17702;47.590;7.666;2022-11-15T05:20:09;10.90;99.90
31038;DHT22;17702;47.590;7.666;2022-11-15T05:22:35;10.90;99.90
31038;DHT22;17702;47.590;7.666;2022-11-15T05:25:00;10.90;99.90
31038;DHT22;17702;47.590;7.666;2022-11-15T05:27:26;11.00;99.90
31038;DHT22;17702;47.590;7.666;2022-11-15T05:29:51;11.00;99.90
31038;DHT22;17702;47.590;7.666;2022-11-15T05:32:17;11.00;99.90
31038;DHT22;17702;47.590;7.666;2022-11-15T05:34:43;11.10;99.90
31038;DHT22;17702;47.590;7.666;2022-11-15T05:37:08;11.00;99.90
31038;DHT22;17702;47.590;7.666;2022-11-15T05:39:34;10.90;99.90
31038;DHT22;17702;47.590;7.666;2022-11-15T05:42:05;10.90;99.90
31038;DHT22;17702;47.590;7.666;2022-11-15T05:44:32;10.90;99.90
31038;DHT22;17702;47.590;7.666;2022-11-15T05:46:59;10.90;99.90
31038;DHT22;17702;47.590;7.666;2022-11-15T05:49:25;10.90;99.90
31038;DHT22;17702;47.590;7.666;2022-11-15T05:51:52;10.90;99.90
31038;DHT22;17702;47.590;7.666;2022-11-15T05:54:18;10.90;99.90
31038;DHT22;17702;47.590;7.666;2022-11-15T05:56:44;10.90;99.90
31038;DHT22;17702;47.590;7.666;2022-11-15T05:59:10;10.90;99.90
31038;DHT22;17702;47.590;7.666;2022-11-15T06:01:36;10.80;99.90
31038;DHT22;17702;47.590;7.666;2022-11-15T06:04:02;10.90;99.90
31038;DHT22;17702;47.590;7.666;2022-11-15T06:06:28;10.90;99.90
31038;DHT22;17702;47.590;7.666;2022-11-15T06:08:53;10.80;99.90
31038;DHT22;17702;47.590;7.666;2022-11-15T06:11:19;10.80;99.90
31038;DHT22;17702;47.590;7.666;2022-11-15T06:13:44;10.80;99.90
31038;DHT22;17702;47.590;7.666;2022-11-15T06:16:10;10.80;99.90
31038;DHT22;17702;47.590;7.666;2022-11-15T06:18:35;10.80;99.90
31038;DHT22;17702;47.590;7.666;2022-11-15T06:21:01;10.80;99.90
31038;DHT22;17702;47.590;7.666;2022-11-15T06:23:27;10.70;99.90
31038;DHT22;17702;47.590;7.666;2022-11-15T06:25:52;10.70;99.90
31038;DHT22;17702;47.590;7.666;2022-11-15T06:28:18;10.80;99.90
31038;DHT22;17702;47.590;7.666;2022-11-15T06:30:43;10.80;99.90
31038;DHT22;17702;47.590;7.666;2022-11-15T06:33:08;10.70;99.90
31038;DHT22;17702;47.590;7.666;2022-11-15T06:35:34;10.60;99.90
31038;DHT22;17702;47.590;7.666;2022-11-15T06:38:04;10.70;99.90
31038;DHT22;17702;47.590;7.666;2022-11-15T06:40:32;10.70;99.90
31038;DHT22;17702;47.590;7.666;2022-11-15T06:42:58;10.70;99.90
31038;DHT22;17702;47.590;7.666;2022-11-15T06:45:24;10.70;99.90
31038;DHT22;17702;47.590;7.666;2022-11-15T06:47:50;10.80;99.90
31038;DHT22;17702;47.590;7.666;2022-11-15T06:50:15;10.70;99.90
31038;DHT22;17702;47.590;7.666;2022-11-15T06:52:41;10.80;99.90
31038;DHT22;17702;47.590;7.666;2022-11-15T06:55:06;10.80;99.90
31038;DHT22;17702;47.590;7.666;2022-11-15T06:57:33;10.70;99.90
31038;DHT22;17702;47.590;7.666;2022-11-15T06:59:58;10.70;99.90
31038;DHT22;17702;47.590;7.666;2022-11-15T07:02:24;10.80;99.90
31038;DHT22;17702;47.590;7.666;2022-11-15T07:04:49;10.70;99.90
31038;DHT22;17702;47.590;7.666;2022-11-15T07:07:14;10.70;99.90
31038;DHT22;17702;47.590;7.666;2022-11-15T07:09:40;10.70;99.90
31038;DHT22;17702;47.590;7.666;2022-11-15T07:12:05;10.70;99.90
31038;DHT22;17702;47.590;7.666;2022-11-15T07:14:31;10.70;99.90
31038;DHT22;17702;47.590;7.666;2022-11-15T07:16:57;10.70;99.90
31038;DHT22;17702;47.590;7.666;2022-11-15T07:19:22;10.70;99.90
31038;DHT22;17702;47.590;7.666;2022-11-15T07:21:48;10.70;99.90
31038;DHT22;17702;47.590;7.666;2022-11-15T07:24:13;10.70;99.90
31038;DHT22;17702;47.590;7.666;2022-11-15T07:26:39;10.80;99.90
31038;DHT22;17702;47.590;7.666;2022-11-15T07:29:04;10.80;99.90
31038;DHT22;17702;47.590;7.666;2022-11-15T07:31:30;10.80;99.90
31038;DHT22;17702;47.590;7.666;2022-11-15T07:33:55;10.70;99.90
31038;DHT22;17702;47.590;7.666;2022-11-15T07:36:21;10.70;99.90
31038;DHT22;17702;47.590;7.666;2022-11-15T07:38:47;10.70;99.90
31038;DHT22;17702;47.590;7.666;2022-11-15T07:41:12;10.70;99.90
31038;DHT22;17702;47.590;7.666;2022-11-15T07:43:37;10.70;99.90
31038;DHT22;17702;47.590;7.666;2022-11-15T07:46:06;10.80;99.90
31038;DHT22;17702;47.590;7.666;2022-11-15T07:48:34;10.80;99.90
31038;DHT22;17702;47.590;7.666;2022-11-15T07:51:00;10.90;99.90
31038;DHT22;17702;47.590;7.666;2022-11-15T07:53:26;10.90;99.90
31038;DHT22;17702;47.590;7.666;2022-11-15T07:55:51;11.00;99.90
31038;DHT22;17702;47.590;7.666;2022-11-15T07:58:18;11.00;99.90
31038;DHT22;17702;47.590;7.666;2022-11-15T08:00:44;11.00;99.90
31038;DHT22;17702;47.590;7.666;2022-11-15T08:03:11;11.00;99.90
31038;DHT22;17702;47.590;7.666;2022-11-15T08:05:37;11.00;99.90
31038;DHT22;17702;47.590;7.666;2022-11-15T08:08:03;11.00;99.90
31038;DHT22;17702;47.590;7.666;2022-11-15T08:10:29;11.00;99.90
31038;DHT22;17702;47.590;7.666;2022-11-15T08:12:58;11.00;99.90
31038;DHT22;17702;47.590;7.666;2022-11-15T08:15:24;11.00;99.90
31038;DHT22;17702;47.590;7.666;2022-11-15T08:17:54;10.90;99.90
31038;DHT22;17702;47.590;7.666;2022-11-15T08:20:19;10.90;99.90
31038;DHT22;17702;47.590;7.666;2022-11-15T08:22:45;10.90;99.90
31038;DHT22;17702;47.590;7.666;2022-11-15T08:25:10;10.90;99.90
31038;DHT22;17702;47.590;7.666;2022-11-15T08:27:36;10.80;99.90
31038;DHT22;17702;47.590;7.666;2022-11-15T08:30:02;10.80;99.90
31038;DHT22;17702;47.590;7.666;2022-11-15T08:32:27;10.80;99.90
31038;DHT22;17702;47.590;7.666;2022-11-15T08:34:53;10.80;99.90
31038;DHT22;17702;47.590;7.666;2022-11-15T08:37:18;10.80;99.90
31038;DHT22;17702;47.590;7.666;2022-11-15T08:39:44;10.70;99.90
31038;DHT22;17702;47.590;7.666;2022-11-15T08:42:09;10.70;99.90
31038;DHT22;17702;47.590;7.666;2022-11-15T08:44:35;10.80;99.90
31038;DHT22;17702;47.590;7.666;2022-11-15T08:47:00;10.80;99.90
31038;DHT22;17702;47.590;7.666;2022-11-15T08:49:26;10.80;99.90
31038;DHT22;17702;47.590;7.666;2022-11-15T08:51:51;10.80;99.90
31038;DHT22;17702;47.590;7.666;2022-11-15T08:54:17;10.80;99.90
31038;DHT22;17702;47.590;7.666;2022-11-15T08:56:42;10.80;99.90
31038;DHT22;17702;47.590;7.666;2022-11-15T08:59:08;10.80;99.90
31038;DHT22;17702;47.590;7.666;2022-11-15T09:01:33;10.90;99.90
31038;DHT22;17702;47.590;7.666;2022-11-15T09:03:59;10.90;99.90
31038;DHT22;17702;47.590;7.666;2022-11-15T09:06:24;10.90;99.90
31038;DHT22;17702;47.590;7.666;2022-11-15T09:08:50;10.90;99.90
31038;DHT22;17702;47.590;7.666;2022-11-15T09:11:15;10.90;99.90
31038;DHT22;17702;47.590;7.666;2022-11-15T09:13:45;10.90;99.90
31038;DHT22;17702;47.590;7.666;2022-11-15T09:16:10;10.90;99.90
31038;DHT22;17702;47.590;7.666;2022-11-15T09:18:37;10.90;99.90
31038;DHT22;17702;47.590;7.666;2022-11-15T09:21:03;10.90;99.90
31038;DHT22;17702;47.590;7.666;2022-11-15T09:23:29;10.80;99.90
31038;DHT22;17702;47.590;7.666;2022-11-15T09:25:59;10.90;99.90
31038;DHT22;17702;47.590;7.666;2022-11-15T09:28:25;10.90;99.90
31038;DHT22;17702;47.590;7.666;2022-11-15T09:30:50;10.80;99.90
31038;DHT22;17702;47.590;7.666;2022-11-15T09:33:16;10.90;99.90
31038;DHT22;17702;47.590;7.666;2022-11-15T09:35:42;10.90;99.90
31038;DHT22;17702;47.590;7.666;2022-11-15T09:38:07;11.00;99.90
31038;DHT22;17702;47.590;7.666;2022-11-15T09:40:35;11.00;99.90
31038;DHT22;17702;47.590;7.666;2022-11-15T09:50:52;11.00;99.90
31038;DHT22;17702;47.590;7.666;2022-11-15T09:53:29;11.00;99.90
31038;DHT22;17702;47.590;7.666;2022-11-15T09:56:00;11.00;99.90
31038;DHT22;17702;47.590;7.666;2022-11-15T09:58:30;11.10;99.90
31038;DHT22;17702;47.590;7.666;2022-11-15T10:00:58;11.10;99.90
31038;DHT22;17702;47.590;7.666;2022-11-15T10:03:27;11.20;99.90
31038;DHT22;17702;47.590;7.666;2022-11-15T10:05:55;11.20;99.90
31038;DHT22;17702;47.590;7.666;2022-11-15T10:08:28;11.20;99.90
31038;DHT22;17702;47.590;7.666;2022-11-15T10:10:57;11.30;99.90
31038;DHT22;17702;47.590;7.666;2022-11-15T10:13:23;11.30;99.90
31038;DHT22;17702;47.590;7.666;2022-11-15T10:15:49;11.30;99.90
31038;DHT22;17702;47.590;7.666;2022-11-15T10:20:46;11.30;99.90
31038;DHT22;17702;47.590;7.666;2022-11-15T10:23:13;11.30;99.90
31038;DHT22;17702;47.590;7.666;2022-11-15T10:25:39;11.30;99.90
31038;DHT22;17702;47.590;7.666;2022-11-15T10:30:41;11.40;99.90
31038;DHT22;17702;47.590;7.666;2022-11-15T10:33:49;11.50;99.90
31038;DHT22;17702;47.590;7.666;2022-11-15T10:41:17;11.60;99.90
31038;DHT22;17702;47.590;7.666;2022-11-15T10:43:43;11.60;99.90
31038;DHT22;17702;47.590;7.666;2022-11-15T10:46:19;11.60;99.90
31038;DHT22;17702;47.590;7.666;2022-11-15T10:48:45;11.60;99.90
31038;DHT22;17702;47.590;7.666;2022-11-15T10:51:20;11.70;99.90
31038;DHT22;17702;47.590;7.666;2022-11-15T10:53:47;11.70;99.90
31038;DHT22;17702;47.590;7.666;2022-11-15T10:56:14;11.70;99.90
31038;DHT22;17702;47.590;7.666;2022-11-15T10:58:43;11.70;99.90
31038;DHT22;17702;47.590;7.666;2022-11-15T11:01:20;11.80;99.90
31038;DHT22;17702;47.590;7.666;2022-11-15T11:04:00;11.80;99.90
31038;DHT22;17702;47.590;7.666;2022-11-15T11:06:26;11.80;99.90
31038;DHT22;17702;47.590;7.666;2022-11-15T11:08:56;11.80;99.90
31038;DHT22;17702;47.590;7.666;2022-11-15T11:11:22;11.80;99.90
31038;DHT22;17702;47.590;7.666;2022-11-15T11:13:48;11.90;99.90
31038;DHT22;17702;47.590;7.666;2022-11-15T11:26:40;12.00;99.90
31038;DHT22;17702;47.590;7.666;2022-11-15T11:36:46;12.10;99.90
31038;DHT22;17702;47.590;7.666;2022-11-15T11:41:55;12.10;99.90
31038;DHT22;17702;47.590;7.666;2022-11-15T11:44:30;12.10;99.90
31038;DHT22;17702;47.590;7.666;2022-11-15T11:47:01;12.10;99.90
31038;DHT22;17702;47.590;7.666;2022-11-15T11:56:59;12.20;99.90
31038;DHT22;17702;47.590;7.666;2022-11-15T12:02:20;12.30;99.90
31038;DHT22;17702;47.590;7.666;2022-11-15T12:04:48;12.40;99.90
31038;DHT22;17702;47.590;7.666;2022-11-15T12:12:31;12.40;99.90
31038;DHT22;17702;47.590;7.666;2022-11-15T12:17:35;12.40;99.90
31038;DHT22;17702;47.590;7.666;2022-11-15T12:20:05;12.30;99.90
31038;DHT22;17702;47.590;7.666;2022-11-15T12:25:30;12.30;99.90
31038;DHT22;17702;47.590;7.666;2022-11-15T12:28:06;12.20;99.90
31038;DHT22;17702;47.590;7.666;2022-11-15T12:30:44;12.10;99.90
31038;DHT22;17702;47.590;7.666;2022-11-15T12:35:59;12.10;99.90
31038;DHT22;17702;47.590;7.666;2022-11-15T12:41:13;12.10;99.90
31038;DHT22;17702;47.590;7.666;2022-11-15T12:43:40;12.10;99.90
31038;DHT22;17702;47.590;7.666;2022-11-15T12:46:10;12.00;99.90
31038;DHT22;17702;47.590;7.666;2022-11-15T12:51:03;12.10;99.90
31038;DHT22;17702;47.590;7.666;2022-11-15T12:53:30;12.10;99.90
31038;DHT22;17702;47.590;7.666;2022-11-15T12:58:28;12.10;99.90
31038;DHT22;17702;47.590;7.666;2022-11-15T13:00:54;12.20;99.90
31038;DHT22;17702;47.590;7.666;2022-11-15T13:03:21;12.20;99.90
31038;DHT22;17702;47.590;7.666;2022-11-15T13:05:53;12.30;99.90
31038;DHT22;17702;47.590;7.666;2022-11-15T13:13:48;12.30;99.90
31038;DHT22;17702;47.590;7.666;2022-11-15T13:16:18;12.30;99.90
31038;DHT22;17702;47.590;7.666;2022-11-15T13:18:52;12.30;99.90
31038;DHT22;17702;47.590;7.666;2022-11-15T13:21:22;12.20;99.90
31038;DHT22;17702;47.590;7.666;2022-11-15T13:24:10;12.20;99.90
31038;DHT22;17702;47.590;7.666;2022-11-15T13:26:38;12.30;99.90
31038;DHT22;17702;47.590;7.666;2022-11-15T13:29:04;12.30;99.90
31038;DHT22;17702;47.590;7.666;2022-11-15T13:31:34;12.30;99.90
31038;DHT22;17702;47.590;7.666;2022-11-15T13:34:02;12.30;99.90
31038;DHT22;17702;47.590;7.666;2022-11-15T13:36:29;12.30;99.90
31038;DHT22;17702;47.590;7.666;2022-11-15T13:39:00;12.30;99.90
31038;DHT22;17702;47.590;7.666;2022-11-15T13:41:27;12.30;99.90
31038;DHT22;17702;47.590;7.666;2022-11-15T13:43:53;12.30;99.90
31038;DHT22;17702;47.590;7.666;2022-11-15T13:46:20;12.30;99.90
31038;DHT22;17702;47.590;7.666;2022-11-15T13:48:48;12.30;99.90
31038;DHT22;17702;47.590;7.666;2022-11-15T13:51:24;12.30;99.90
31038;DHT22;17702;47.590;7.666;2022-11-15T13:53:55;12.40;99.90
31038;DHT22;17702;47.590;7.666;2022-11-15T13:56:21;12.30;99.90
31038;DHT22;17702;47.590;7.666;2022-11-15T13:58:47;12.40;99.90
31038;DHT22;17702;47.590;7.666;2022-11-15T14:01:17;12.30;99.90
31038;DHT22;17702;47.590;7.666;2022-11-15T14:03:49;12.40;99.90
31038;DHT22;17702;47.590;7.666;2022-11-15T14:06:16;12.40;99.90
31038;DHT22;17702;47.590;7.666;2022-11-15T14:08:57;12.40;99.90
31038;DHT22;17702;47.590;7.666;2022-11-15T14:11:23;12.40;99.90
31038;DHT22;17702;47.590;7.666;2022-11-15T14:16:36;12.40;99.90
31038;DHT22;17702;47.590;7.666;2022-11-15T14:19:02;12.30;99.90
31038;DHT22;17702;47.590;7.666;2022-11-15T14:21:28;12.30;99.90
31038;DHT22;17702;47.590;7.666;2022-11-15T14:24:13;12.30;99.90
31038;DHT22;17702;47.590;7.666;2022-11-15T14:26:39;12.30;99.90
31038;DHT22;17702;47.590;7.666;2022-11-15T14:29:24;12.30;99.90
31038;DHT22;17702;47.590;7.666;2022-11-15T14:31:49;12.30;99.90
31038;DHT22;17702;47.590;7.666;2022-11-15T14:34:15;12.30;99.90
31038;DHT22;17702;47.590;7.666;2022-11-15T14:36:40;12.30;99.90
31038;DHT22;17702;47.590;7.666;2022-11-15T14:39:06;12.30;99.90
31038;DHT22;17702;47.590;7.666;2022-11-15T14:41:34;12.30;99.90
31038;DHT22;17702;47.590;7.666;2022-11-15T14:44:03;12.30;99.90
31038;DHT22;17702;47.590;7.666;2022-11-15T14:46:29;12.30;99.90
31038;DHT22;17702;47.590;7.666;2022-11-15T14:48:54;12.30;99.90
31038;DHT22;17702;47.590;7.666;2022-11-15T14:51:20;12.30;99.90
31038;DHT22;17702;47.590;7.666;2022-11-15T14:53:45;12.20;99.90
31038;DHT22;17702;47.590;7.666;2022-11-15T14:56:11;12.30;99.90
31038;DHT22;17702;47.590;7.666;2022-11-15T14:58:37;12.20;99.90
31038;DHT22;17702;47.590;7.666;2022-11-15T15:01:05;12.30;99.90
31038;DHT22;17702;47.590;7.666;2022-11-15T15:03:36;12.30;99.90
31038;DHT22;17702;47.590;7.666;2022-11-15T15:06:01;12.30;99.90
31038;DHT22;17702;47.590;7.666;2022-11-15T15:08:26;12.30;99.90
31038;DHT22;17702;47.590;7.666;2022-11-15T15:10:52;12.30;99.90
31038;DHT22;17702;47.590;7.666;2022-11-15T15:13:19;12.30;99.90
31038;DHT22;17702;47.590;7.666;2022-11-15T15:15:45;12.20;99.90
31038;DHT22;17702;47.590;7.666;2022-11-15T15:18:11;12.30;99.90
31038;DHT22;17702;47.590;7.666;2022-11-15T15:20:37;12.20;99.90
31038;DHT22;17702;47.590;7.666;2022-11-15T15:23:03;12.20;99.90
31038;DHT22;17702;47.590;7.666;2022-11-15T15:27:54;12.20;99.90
31038;DHT22;17702;47.590;7.666;2022-11-15T15:30:20;12.20;99.90
31038;DHT22;17702;47.590;7.666;2022-11-15T15:32:46;12.20;99.90
31038;DHT22;17702;47.590;7.666;2022-11-15T15:35:15;12.20;99.90
31038;DHT22;17702;47.590;7.666;2022-11-15T15:37:42;12.10;99.90
31038;DHT22;17702;47.590;7.666;2022-11-15T15:40:14;12.10;99.90
31038;DHT22;17702;47.590;7.666;2022-11-15T15:42:39;12.20;99.90
31038;DHT22;17702;47.590;7.666;2022-11-15T15:45:05;12.20;99.90
31038;DHT22;17702;47.590;7.666;2022-11-15T15:47:31;12.20;99.90
31038;DHT22;17702;47.590;7.666;2022-11-15T15:49:56;12.10;99.90
31038;DHT22;17702;47.590;7.666;2022-11-15T15:52:22;12.10;99.90
31038;DHT22;17702;47.590;7.666;2022-11-15T15:54:47;12.10;99.90
31038;DHT22;17702;47.590;7.666;2022-11-15T15:57:13;12.10;99.90
31038;DHT22;17702;47.590;7.666;2022-11-15T15:59:39;12.10;99.90
31038;DHT22;17702;47.590;7.666;2022-11-15T16:02:05;12.20;99.90
31038;DHT22;17702;47.590;7.666;2022-11-15T16:04:30;12.20;99.90
31038;DHT22;17702;47.590;7.666;2022-11-15T16:06:59;12.20;99.90
31038;DHT22;17702;47.590;7.666;2022-11-15T16:09:25;12.20;99.90
31038;DHT22;17702;47.590;7.666;2022-11-15T16:12:09;12.20;99.90
31038;DHT22;17702;47.590;7.666;2022-11-15T16:14:34;12.30;99.90
31038;DHT22;17702;47.590;7.666;2022-11-15T16:17:00;12.20;99.90
31038;DHT22;17702;47.590;7.666;2022-11-15T16:19:26;12.20;99.90
31038;DHT22;17702;47.590;7.666;2022-11-15T16:21:51;12.20;99.90
31038;DHT22;17702;47.590;7.666;2022-11-15T16:24:17;12.20;99.90
31038;DHT22;17702;47.590;7.666;2022-11-15T16:26:43;12.20;99.90
31038;DHT22;17702;47.590;7.666;2022-11-15T16:29:09;12.20;99.90
31038;DHT22;17702;47.590;7.666;2022-11-15T16:31:35;12.20;99.90
31038;DHT22;17702;47.590;7.666;2022-11-15T16:34:00;12.20;99.90
31038;DHT22;17702;47.590;7.666;2022-11-15T16:36:26;12.20;99.90
31038;DHT22;17702;47.590;7.666;2022-11-15T16:38:52;12.20;99.90
31038;DHT22;17702;47.590;7.666;2022-11-15T16:41:18;12.10;99.90
31038;DHT22;17702;47.590;7.666;2022-11-15T16:43:47;12.10;99.90
31038;DHT22;17702;47.590;7.666;2022-11-15T16:46:17;12.10;99.90
31038;DHT22;17702;47.590;7.666;2022-11-15T16:48:43;12.10;99.90
31038;DHT22;17702;47.590;7.666;2022-11-15T16:51:09;12.00;99.90
31038;DHT22;17702;47.590;7.666;2022-11-15T16:53:34;12.10;99.90
31038;DHT22;17702;47.590;7.666;2022-11-15T16:56:00;12.10;99.90
31038;DHT22;17702;47.590;7.666;2022-11-15T16:58:25;12.00;99.90
31038;DHT22;17702;47.590;7.666;2022-11-15T17:00:51;12.00;99.90
31038;DHT22;17702;47.590;7.666;2022-11-15T17:03:18;12.10;99.90
31038;DHT22;17702;47.590;7.666;2022-11-15T17:05:43;12.00;99.90
31038;DHT22;17702;47.590;7.666;2022-11-15T17:08:09;12.00;99.90
31038;DHT22;17702;47.590;7.666;2022-11-15T17:10:37;12.00;99.90
31038;DHT22;17702;47.590;7.666;2022-11-15T17:15:43;12.00;99.90